sensor_id;sensor_type;location;lat;lon;timestamp;pressure;altitude;pressure_sealevel;temperature;humidity
67377;BME280;54261;46.086;6.588;2023-02-22T00:04:53;92395.19;;;8.43;35.72
67377;BME280;54261;46.086;6.588;2023-02-22T00:09:55;92377.72;;;8.37;36.01
67377;BME280;54261;46.086;6.588;2023-02-22T00:14:57;92379.06;;;8.26;36.15
67377;BME280;54261;46.086;6.588;2023-02-22T00:19:59;92390.84;;;8.47;36.21
67377;BME280;54261;46.086;6.588;2023-02-22T00:25:01;92382.31;;;8.45;36.28
67377;BME280;54261;46.086;6.588;2023-02-22T00:30:04;92371.78;;;8.49;36.22
67377;BME280;54261;46.086;6.588;2023-02-22T00:35:07;92391.38;;;8.58;36.01
67377;BME280;54261;46.086;6.588;2023-02-22T00:40:11;92396.19;;;8.47;35.79
67377;BME280;54261;46.086;6.588;2023-02-22T00:45:19;92394.06;;;8.35;35.88
67377;BME280;54261;46.086;6.588;2023-02-22T00:50:23;92389.88;;;8.20;35.92
67377;BME280;54261;46.086;6.588;2023-02-22T00:55:29;92377.94;;;7.81;36.24
67377;BME280;54261;46.086;6.588;2023-02-22T01:00:34;92384.88;;;8.05;36.15
67377;BME280;54261;46.086;6.588;2023-02-22T01:05:37;92368.78;;;7.59;36.24
67377;BME280;54261;46.086;6.588;2023-02-22T01:10:40;92373.03;;;7.97;36.32
67377;BME280;54261;46.086;6.588;2023-02-22T01:15:42;92374.31;;;8.00;35.65
67377;BME280;54261;46.086;6.588;2023-02-22T01:20:45;92378.16;;;8.30;35.63
67377;BME280;54261;46.086;6.588;2023-02-22T01:25:49;92374.06;;;8.33;35.56
67377;BME280;54261;46.086;6.588;2023-02-22T01:30:51;92362.34;;;8.20;35.10
67377;BME280;54261;46.086;6.588;2023-02-22T01:35:53;92364.34;;;7.91;35.67
67377;BME280;54261;46.086;6.588;2023-02-22T01:40:55;92360.28;;;7.94;35.95
67377;BME280;54261;46.086;6.588;2023-02-22T01:51:26;92358.00;;;7.87;36.21
67377;BME280;54261;46.086;6.588;2023-02-22T01:56:33;92354.75;;;7.54;37.50
67377;BME280;54261;46.086;6.588;2023-02-22T02:01:38;92357.53;;;7.12;37.44
67377;BME280;54261;46.086;6.588;2023-02-22T02:06:41;92339.81;;;7.66;36.13
67377;BME280;54261;46.086;6.588;2023-02-22T02:11:44;92342.78;;;7.51;36.35
67377;BME280;54261;46.086;6.588;2023-02-22T02:16:48;92332.44;;;6.09;38.08
67377;BME280;54261;46.086;6.588;2023-02-22T02:22:12;92333.28;;;6.52;38.48
67377;BME280;54261;46.086;6.588;2023-02-22T02:27:28;92320.97;;;6.84;37.79
67377;BME280;54261;46.086;6.588;2023-02-22T02:48:46;92328.44;;;7.84;36.32
67377;BME280;54261;46.086;6.588;2023-02-22T02:53:51;92324.66;;;7.99;36.24
67377;BME280;54261;46.086;6.588;2023-02-22T02:58:53;92333.09;;;7.55;36.70
67377;BME280;54261;46.086;6.588;2023-02-22T03:04:29;92316.47;;;7.58;36.52
67377;BME280;54261;46.086;6.588;2023-02-22T03:14:42;92322.63;;;6.66;37.26
67377;BME280;54261;46.086;6.588;2023-02-22T03:19:52;92322.63;;;7.08;37.60
67377;BME280;54261;46.086;6.588;2023-02-22T03:25:10;92305.06;;;6.93;36.92
67377;BME280;54261;46.086;6.588;2023-02-22T03:30:21;92321.16;;;6.88;37.63
67377;BME280;54261;46.086;6.588;2023-02-22T03:35:30;92318.50;;;6.74;38.47
67377;BME280;54261;46.086;6.588;2023-02-22T03:40:38;92307.72;;;6.65;38.38
67377;BME280;54261;46.086;6.588;2023-02-22T03:45:46;92297.03;;;6.93;38.02
67377;BME280;54261;46.086;6.588;2023-02-22T03:50:52;92321.84;;;7.07;38.00
67377;BME280;54261;46.086;6.588;2023-02-22T03:55:55;92310.88;;;7.46;37.12
67377;BME280;54261;46.086;6.588;2023-02-22T04:00:58;92327.78;;;8.01;36.43
67377;BME280;54261;46.086;6.588;2023-02-22T04:06:01;92308.59;;;7.99;35.82
67377;BME280;54261;46.086;6.588;2023-02-22T04:11:04;92304.78;;;7.31;36.37
67377;BME280;54261;46.086;6.588;2023-02-22T04:16:06;92315.34;;;7.73;36.66
67377;BME280;54261;46.086;6.588;2023-02-22T04:21:10;92326.97;;;7.55;36.63
67377;BME280;54261;46.086;6.588;2023-02-22T04:26:19;92330.63;;;6.94;37.25
67377;BME280;54261;46.086;6.588;2023-02-22T04:31:26;92338.63;;;7.59;36.77
67377;BME280;54261;46.086;6.588;2023-02-22T04:36:31;92310.38;;;7.44;36.97
67377;BME280;54261;46.086;6.588;2023-02-22T04:41:34;92328.47;;;8.06;35.80
67377;BME280;54261;46.086;6.588;2023-02-22T04:46:37;92323.06;;;5.79;38.44
67377;BME280;54261;46.086;6.588;2023-02-22T04:51:39;92301.28;;;6.66;38.24
67377;BME280;54261;46.086;6.588;2023-02-22T04:56:45;92333.22;;;5.38;39.78
67377;BME280;54261;46.086;6.588;2023-02-22T05:01:47;92308.78;;;5.89;39.38
67377;BME280;54261;46.086;6.588;2023-02-22T05:06:49;92338.78;;;5.23;39.94
67377;BME280;54261;46.086;6.588;2023-02-22T05:11:52;92321.25;;;6.82;38.69
67377;BME280;54261;46.086;6.588;2023-02-22T05:16:55;92320.06;;;7.03;38.04
67377;BME280;54261;46.086;6.588;2023-02-22T05:21:58;92318.69;;;6.63;37.88
67377;BME280;54261;46.086;6.588;2023-02-22T05:26:59;92324.03;;;6.91;38.10
67377;BME280;54261;46.086;6.588;2023-02-22T05:32:02;92307.88;;;5.79;39.00
67377;BME280;54261;46.086;6.588;2023-02-22T05:37:04;92316.47;;;5.19;41.28
67377;BME280;54261;46.086;6.588;2023-02-22T05:42:06;92319.66;;;5.92;38.95
67377;BME280;54261;46.086;6.588;2023-02-22T05:47:08;92321.31;;;5.88;39.74
67377;BME280;54261;46.086;6.588;2023-02-22T05:52:10;92295.69;;;5.02;40.90
67377;BME280;54261;46.086;6.588;2023-02-22T05:57:11;92316.44;;;5.76;40.31
67377;BME280;54261;46.086;6.588;2023-02-22T06:02:13;92282.94;;;5.56;40.79
67377;BME280;54261;46.086;6.588;2023-02-22T06:07:15;92294.19;;;6.47;39.13
67377;BME280;54261;46.086;6.588;2023-02-22T06:12:18;92314.31;;;7.09;38.13
67377;BME280;54261;46.086;6.588;2023-02-22T06:17:20;92324.91;;;7.01;38.36
67377;BME280;54261;46.086;6.588;2023-02-22T06:22:22;92320.41;;;7.24;37.68
67377;BME280;54261;46.086;6.588;2023-02-22T06:27:24;92318.66;;;6.49;38.25
67377;BME280;54261;46.086;6.588;2023-02-22T06:32:26;92326.94;;;7.32;37.30
67377;BME280;54261;46.086;6.588;2023-02-22T06:37:28;92327.13;;;6.09;38.55
67377;BME280;54261;46.086;6.588;2023-02-22T06:42:30;92324.69;;;5.61;39.86
67377;BME280;54261;46.086;6.588;2023-02-22T06:47:32;92337.72;;;4.80;41.40
67377;BME280;54261;46.086;6.588;2023-02-22T06:52:34;92337.72;;;6.43;40.00
67377;BME280;54261;46.086;6.588;2023-02-22T06:57:36;92349.47;;;6.42;39.14
67377;BME280;54261;46.086;6.588;2023-02-22T07:02:38;92315.91;;;6.97;38.69
67377;BME280;54261;46.086;6.588;2023-02-22T07:07:40;92359.63;;;7.37;37.30
67377;BME280;54261;46.086;6.588;2023-02-22T07:12:42;92365.53;;;6.84;38.85
67377;BME280;54261;46.086;6.588;2023-02-22T07:17:43;92364.19;;;6.67;39.14
67377;BME280;54261;46.086;6.588;2023-02-22T07:22:47;92364.56;;;6.93;38.13
67377;BME280;54261;46.086;6.588;2023-02-22T07:27:49;92369.81;;;6.51;40.37
67377;BME280;54261;46.086;6.588;2023-02-22T07:32:53;92328.72;;;6.24;39.93
67377;BME280;54261;46.086;6.588;2023-02-22T07:37:56;92370.22;;;7.43;38.89
67377;BME280;54261;46.086;6.588;2023-02-22T07:48:14;92385.16;;;7.30;38.65
67377;BME280;54261;46.086;6.588;2023-02-22T07:53:21;92388.22;;;6.67;39.43
67377;BME280;54261;46.086;6.588;2023-02-22T07:58:26;92389.56;;;7.62;38.69
67377;BME280;54261;46.086;6.588;2023-02-22T08:03:31;92395.66;;;6.84;39.33
67377;BME280;54261;46.086;6.588;2023-02-22T08:08:37;92384.84;;;6.14;40.76
67377;BME280;54261;46.086;6.588;2023-02-22T08:13:38;92356.78;;;7.34;38.81
67377;BME280;54261;46.086;6.588;2023-02-22T08:18:41;92383.56;;;7.79;38.64
67377;BME280;54261;46.086;6.588;2023-02-22T08:23:43;92350.66;;;8.07;37.65
67377;BME280;54261;46.086;6.588;2023-02-22T08:28:45;92364.59;;;8.27;37.33
67377;BME280;54261;46.086;6.588;2023-02-22T08:33:47;92332.66;;;8.21;37.17
67377;BME280;54261;46.086;6.588;2023-02-22T08:38:50;92390.56;;;8.89;36.87
67377;BME280;54261;46.086;6.588;2023-02-22T08:43:52;92395.69;;;8.77;36.57
67377;BME280;54261;46.086;6.588;2023-02-22T08:48:54;92406.09;;;9.10;36.69
67377;BME280;54261;46.086;6.588;2023-02-22T08:53:56;92397.94;;;9.24;35.80
67377;BME280;54261;46.086;6.588;2023-02-22T08:58:58;92406.59;;;9.21;36.99
67377;BME280;54261;46.086;6.588;2023-02-22T09:04:01;92392.06;;;6.14;41.08
67377;BME280;54261;46.086;6.588;2023-02-22T09:09:03;92396.63;;;7.81;39.67
67377;BME280;54261;46.086;6.588;2023-02-22T09:14:05;92390.34;;;9.09;37.71
67377;BME280;54261;46.086;6.588;2023-02-22T09:19:06;92355.28;;;7.42;40.06
67377;BME280;54261;46.086;6.588;2023-02-22T09:24:08;92404.63;;;9.53;38.06
67377;BME280;54261;46.086;6.588;2023-02-22T09:29:10;92369.66;;;7.18;39.95
67377;BME280;54261;46.086;6.588;2023-02-22T09:34:12;92383.59;;;7.29;39.36
67377;BME280;54261;46.086;6.588;2023-02-22T09:39:16;92381.78;;;4.62;45.29
67377;BME280;54261;46.086;6.588;2023-02-22T09:44:35;92384.53;;;4.52;47.28
67377;BME280;54261;46.086;6.588;2023-02-22T09:49:58;92362.69;;;5.66;43.88
67377;BME280;54261;46.086;6.588;2023-02-22T10:00:14;92383.19;;;4.79;46.53
67377;BME280;54261;46.086;6.588;2023-02-22T10:05:23;92382.75;;;6.11;45.29
67377;BME280;54261;46.086;6.588;2023-02-22T10:10:34;92371.91;;;6.54;43.71
67377;BME280;54261;46.086;6.588;2023-02-22T10:15:49;92378.78;;;5.56;45.72
67377;BME280;54261;46.086;6.588;2023-02-22T10:21:11;92348.97;;;5.92;44.97
67377;BME280;54261;46.086;6.588;2023-02-22T10:26:24;92354.84;;;6.70;44.44
67377;BME280;54261;46.086;6.588;2023-02-22T10:31:33;92373.91;;;7.70;43.44
67377;BME280;54261;46.086;6.588;2023-02-22T10:36:37;92388.16;;;7.65;40.84
67377;BME280;54261;46.086;6.588;2023-02-22T10:41:45;92323.38;;;5.58;44.15
67377;BME280;54261;46.086;6.588;2023-02-22T10:46:49;92383.44;;;8.85;40.87
67377;BME280;54261;46.086;6.588;2023-02-22T10:52:00;92380.78;;;9.25;40.64
67377;BME280;54261;46.086;6.588;2023-02-22T10:57:02;92374.19;;;7.45;43.77
67377;BME280;54261;46.086;6.588;2023-02-22T11:02:20;92367.63;;;9.90;39.15
67377;BME280;54261;46.086;6.588;2023-02-22T11:07:32;92363.78;;;9.30;38.76
67377;BME280;54261;46.086;6.588;2023-02-22T11:12:39;92362.69;;;9.40;38.07
67377;BME280;54261;46.086;6.588;2023-02-22T11:17:45;92338.78;;;7.99;40.82
67377;BME280;54261;46.086;6.588;2023-02-22T11:22:51;92349.19;;;7.27;44.40
67377;BME280;54261;46.086;6.588;2023-02-22T11:28:06;92349.53;;;6.84;44.61
67377;BME280;54261;46.086;6.588;2023-02-22T11:38:34;92346.06;;;8.30;41.83
67377;BME280;54261;46.086;6.588;2023-02-22T11:43:37;92341.44;;;9.87;39.05
67377;BME280;54261;46.086;6.588;2023-02-22T11:54:18;92267.50;;;9.07;38.36
67377;BME280;54261;46.086;6.588;2023-02-22T11:59:37;92329.50;;;10.59;37.81
67377;BME280;54261;46.086;6.588;2023-02-22T12:15:38;92311.81;;;9.57;38.91
67377;BME280;54261;46.086;6.588;2023-02-22T12:20:57;92267.53;;;9.33;39.42
67377;BME280;54261;46.086;6.588;2023-02-22T12:26:12;92282.47;;;10.05;38.35
67377;BME280;54261;46.086;6.588;2023-02-22T12:31:31;92315.44;;;10.14;38.71
67377;BME280;54261;46.086;6.588;2023-02-22T12:42:06;92305.25;;;8.47;42.12
67377;BME280;54261;46.086;6.588;2023-02-22T12:47:20;92308.81;;;8.74;42.50
67377;BME280;54261;46.086;6.588;2023-02-22T12:57:47;92314.34;;;10.07;42.28
67377;BME280;54261;46.086;6.588;2023-02-22T13:08:29;92320.31;;;10.69;41.46
67377;BME280;54261;46.086;6.588;2023-02-22T13:14:15;92308.69;;;10.56;42.61
67377;BME280;54261;46.086;6.588;2023-02-22T13:25:01;92308.47;;;11.39;41.76
67377;BME280;54261;46.086;6.588;2023-02-22T13:30:17;92304.53;;;10.02;42.87
67377;BME280;54261;46.086;6.588;2023-02-22T13:56:44;92305.38;;;11.28;40.90
67377;BME280;54261;46.086;6.588;2023-02-22T14:01:47;92301.56;;;12.14;40.48
67377;BME280;54261;46.086;6.588;2023-02-22T14:06:50;92301.66;;;12.51;39.83
67377;BME280;54261;46.086;6.588;2023-02-22T14:11:52;92282.47;;;12.65;39.24
67377;BME280;54261;46.086;6.588;2023-02-22T14:17:26;92287.84;;;12.07;39.54
67377;BME280;54261;46.086;6.588;2023-02-22T14:22:29;92304.78;;;12.53;38.61
67377;BME280;54261;46.086;6.588;2023-02-22T14:27:40;92301.09;;;12.58;39.27
67377;BME280;54261;46.086;6.588;2023-02-22T14:32:42;92299.75;;;12.77;39.06
67377;BME280;54261;46.086;6.588;2023-02-22T14:37:48;92299.31;;;12.16;39.30
67377;BME280;54261;46.086;6.588;2023-02-22T14:43:09;92269.22;;;11.46;40.16
67377;BME280;54261;46.086;6.588;2023-02-22T14:48:27;92294.22;;;11.38;41.05
67377;BME280;54261;46.086;6.588;2023-02-22T14:53:50;92288.41;;;11.57;40.96
67377;BME280;54261;46.086;6.588;2023-02-22T15:04:22;92287.63;;;11.78;40.58
67377;BME280;54261;46.086;6.588;2023-02-22T15:09:29;92282.38;;;11.82;40.44
67377;BME280;54261;46.086;6.588;2023-02-22T15:14:36;92286.59;;;11.49;40.99
67377;BME280;54261;46.086;6.588;2023-02-22T15:19:40;92287.03;;;11.72;40.80
67377;BME280;54261;46.086;6.588;2023-02-22T15:24:43;92282.38;;;11.39;40.57
67377;BME280;54261;46.086;6.588;2023-02-22T15:29:47;92286.16;;;11.38;41.30
67377;BME280;54261;46.086;6.588;2023-02-22T15:34:49;92286.06;;;11.56;41.23
67377;BME280;54261;46.086;6.588;2023-02-22T15:39:51;92287.88;;;11.64;40.71
67377;BME280;54261;46.086;6.588;2023-02-22T15:45:00;92274.31;;;11.39;40.39
67377;BME280;54261;46.086;6.588;2023-02-22T16:00:38;92286.38;;;10.25;43.01
67377;BME280;54261;46.086;6.588;2023-02-22T16:05:46;92290.91;;;10.42;42.67
67377;BME280;54261;46.086;6.588;2023-02-22T16:21:20;92292.00;;;10.41;42.64
67377;BME280;54261;46.086;6.588;2023-02-22T16:26:26;92285.53;;;10.81;41.96
67377;BME280;54261;46.086;6.588;2023-02-22T16:31:32;92237.06;;;10.78;41.48
67377;BME280;54261;46.086;6.588;2023-02-22T16:36:48;92284.88;;;10.45;42.67
67377;BME280;54261;46.086;6.588;2023-02-22T16:41:54;92280.72;;;10.96;41.66
67377;BME280;54261;46.086;6.588;2023-02-22T16:46:58;92286.81;;;11.14;41.35
67377;BME280;54261;46.086;6.588;2023-02-22T16:52:05;92247.38;;;11.06;41.21
67377;BME280;54261;46.086;6.588;2023-02-22T16:57:15;92269.19;;;11.25;40.40
67377;BME280;54261;46.086;6.588;2023-02-22T17:02:20;92281.31;;;10.71;41.02
67377;BME280;54261;46.086;6.588;2023-02-22T17:07:22;92276.81;;;10.54;41.42
67377;BME280;54261;46.086;6.588;2023-02-22T17:12:26;92284.88;;;10.45;41.96
67377;BME280;54261;46.086;6.588;2023-02-22T17:17:29;92278.53;;;10.02;42.72
67377;BME280;54261;46.086;6.588;2023-02-22T17:22:33;92274.00;;;10.42;42.67
67377;BME280;54261;46.086;6.588;2023-02-22T17:27:35;92296.31;;;10.33;42.36
67377;BME280;54261;46.086;6.588;2023-02-22T17:32:36;92263.81;;;10.26;42.52
67377;BME280;54261;46.086;6.588;2023-02-22T17:37:38;92296.38;;;10.55;41.83
67377;BME280;54261;46.086;6.588;2023-02-22T17:42:44;92294.44;;;10.16;42.82
67377;BME280;54261;46.086;6.588;2023-02-22T17:47:46;92299.25;;;10.41;41.91
67377;BME280;54261;46.086;6.588;2023-02-22T17:52:48;92305.84;;;10.52;41.83
67377;BME280;54261;46.086;6.588;2023-02-22T17:57:54;92313.00;;;10.39;41.90
67377;BME280;54261;46.086;6.588;2023-02-22T18:03:07;92314.34;;;9.62;43.13
67377;BME280;54261;46.086;6.588;2023-02-22T18:08:09;92311.78;;;10.10;42.80
67377;BME280;54261;46.086;6.588;2023-02-22T18:13:13;92296.94;;;10.22;42.59
67377;BME280;54261;46.086;6.588;2023-02-22T18:18:17;92299.94;;;10.29;42.85
67377;BME280;54261;46.086;6.588;2023-02-22T18:23:20;92317.16;;;10.19;42.59
67377;BME280;54261;46.086;6.588;2023-02-22T18:28:22;92309.44;;;10.09;42.47
67377;BME280;54261;46.086;6.588;2023-02-22T18:33:24;92311.31;;;10.08;43.23
67377;BME280;54261;46.086;6.588;2023-02-22T18:38:26;92299.84;;;9.90;42.81
67377;BME280;54261;46.086;6.588;2023-02-22T18:43:28;92222.00;;;9.33;42.92
67377;BME280;54261;46.086;6.588;2023-02-22T18:48:32;92307.34;;;10.32;42.77
67377;BME280;54261;46.086;6.588;2023-02-22T18:53:35;92301.88;;;9.67;43.31
67377;BME280;54261;46.086;6.588;2023-02-22T18:58:37;92296.69;;;9.70;43.66
67377;BME280;54261;46.086;6.588;2023-02-22T19:03:39;92298.25;;;9.62;43.41
67377;BME280;54261;46.086;6.588;2023-02-22T19:08:42;92303.09;;;10.22;42.73
67377;BME280;54261;46.086;6.588;2023-02-22T19:13:46;92291.63;;;10.04;42.20
67377;BME280;54261;46.086;6.588;2023-02-22T19:18:50;92299.38;;;9.70;43.13
67377;BME280;54261;46.086;6.588;2023-02-22T19:23:53;92278.69;;;9.88;42.81
67377;BME280;54261;46.086;6.588;2023-02-22T19:28:56;92290.06;;;9.76;42.46
67377;BME280;54261;46.086;6.588;2023-02-22T19:34:07;92290.53;;;10.05;42.19
67377;BME280;54261;46.086;6.588;2023-02-22T19:39:10;92291.28;;;10.23;41.91
67377;BME280;54261;46.086;6.588;2023-02-22T19:44:12;92269.41;;;9.86;41.73
67377;BME280;54261;46.086;6.588;2023-02-22T19:49:14;92272.72;;;9.74;41.95
67377;BME280;54261;46.086;6.588;2023-02-22T19:54:16;92290.50;;;9.96;41.82
67377;BME280;54261;46.086;6.588;2023-02-22T19:59:21;92281.38;;;9.88;42.42
67377;BME280;54261;46.086;6.588;2023-02-22T20:04:24;92283.75;;;9.99;42.04
67377;BME280;54261;46.086;6.588;2023-02-22T20:09:28;92292.75;;;9.76;42.09
67377;BME280;54261;46.086;6.588;2023-02-22T20:14:31;92279.19;;;9.82;42.90
67377;BME280;54261;46.086;6.588;2023-02-22T20:19:34;92231.59;;;8.99;43.00
67377;BME280;54261;46.086;6.588;2023-02-22T20:24:37;92285.66;;;9.72;43.26
67377;BME280;54261;46.086;6.588;2023-02-22T20:29:39;92272.09;;;9.59;41.93
67377;BME280;54261;46.086;6.588;2023-02-22T20:34:45;92286.59;;;9.76;42.73
67377;BME280;54261;46.086;6.588;2023-02-22T20:39:49;92291.44;;;10.00;42.54
67377;BME280;54261;46.086;6.588;2023-02-22T20:44:51;92239.78;;;9.73;42.09
67377;BME280;54261;46.086;6.588;2023-02-22T20:49:54;92296.97;;;9.95;41.90
67377;BME280;54261;46.086;6.588;2023-02-22T20:54:56;92292.59;;;9.73;42.57
67377;BME280;54261;46.086;6.588;2023-02-22T20:59:58;92276.97;;;9.48;42.31
67377;BME280;54261;46.086;6.588;2023-02-22T21:05:01;92281.84;;;9.90;42.10
67377;BME280;54261;46.086;6.588;2023-02-22T21:10:03;92285.81;;;9.23;42.47
67377;BME280;54261;46.086;6.588;2023-02-22T21:15:07;92251.91;;;9.00;42.17
67377;BME280;54261;46.086;6.588;2023-02-22T21:20:09;92285.00;;;9.13;43.29
67377;BME280;54261;46.086;6.588;2023-02-22T21:25:12;92217.13;;;9.27;42.82
67377;BME280;54261;46.086;6.588;2023-02-22T21:30:17;92268.47;;;9.20;42.47
67377;BME280;54261;46.086;6.588;2023-02-22T21:35:20;92274.72;;;8.98;43.09
67377;BME280;54261;46.086;6.588;2023-02-22T21:40:22;92279.06;;;9.43;42.75
67377;BME280;54261;46.086;6.588;2023-02-22T21:45:26;92259.34;;;9.65;42.27
67377;BME280;54261;46.086;6.588;2023-02-22T21:50:30;92273.69;;;9.60;42.01
67377;BME280;54261;46.086;6.588;2023-02-22T21:55:32;92275.84;;;9.94;41.94
67377;BME280;54261;46.086;6.588;2023-02-22T22:00:34;92216.47;;;9.65;42.14
67377;BME280;54261;46.086;6.588;2023-02-22T22:05:43;92269.69;;;9.05;42.29
67377;BME280;54261;46.086;6.588;2023-02-22T22:10:53;92260.72;;;9.80;41.13
67377;BME280;54261;46.086;6.588;2023-02-22T22:16:02;92252.22;;;9.87;41.86
67377;BME280;54261;46.086;6.588;2023-02-22T22:21:15;92256.16;;;9.81;41.88
67377;BME280;54261;46.086;6.588;2023-02-22T22:26:19;92238.56;;;9.35;41.48
67377;BME280;54261;46.086;6.588;2023-02-22T22:31:22;92238.22;;;9.63;41.50
67377;BME280;54261;46.086;6.588;2023-02-22T22:36:25;92260.25;;;9.87;41.71
67377;BME280;54261;46.086;6.588;2023-02-22T22:41:27;92241.22;;;9.53;41.58
67377;BME280;54261;46.086;6.588;2023-02-22T22:46:29;92240.13;;;9.37;42.76
67377;BME280;54261;46.086;6.588;2023-02-22T22:51:32;92239.28;;;8.92;42.97
67377;BME280;54261;46.086;6.588;2023-02-22T22:56:35;92230.19;;;9.63;41.79
67377;BME280;54261;46.086;6.588;2023-02-22T23:01:41;92214.59;;;9.39;41.83
67377;BME280;54261;46.086;6.588;2023-02-22T23:06:47;92235.84;;;9.00;41.77
67377;BME280;54261;46.086;6.588;2023-02-22T23:11:54;92242.00;;;9.18;42.25
67377;BME280;54261;46.086;6.588;2023-02-22T23:16:58;92223.69;;;8.94;42.06
67377;BME280;54261;46.086;6.588;2023-02-22T23:22:13;92237.25;;;8.98;42.82
67377;BME280;54261;46.086;6.588;2023-02-22T23:27:15;92206.53;;;8.95;41.32
67377;BME280;54261;46.086;6.588;2023-02-22T23:32:19;92156.75;;;8.59;42.77
67377;BME280;54261;46.086;6.588;2023-02-22T23:37:21;92194.28;;;9.12;42.15
67377;BME280;54261;46.086;6.588;2023-02-22T23:42:23;92217.72;;;9.59;41.91
67377;BME280;54261;46.086;6.588;2023-02-22T23:47:25;92194.16;;;8.41;42.65
67377;BME280;54261;46.086;6.588;2023-02-22T23:52:32;92212.38;;;9.06;42.89
67377;BME280;54261;46.086;6.588;2023-02-22T23:57:33;92212.53;;;9.54;42.26
